Time;durP1;ratioP1;P1;durP2;ratioP2;P2;SDS_P1;SDS_P2;PMS_P1;PMS_P2;Temp;Humidity;BMP_temperature;BMP_pressure;BME280_temperature;BME280_humidity;BME280_pressure;Samples;Min_cycle;Max_cycle;Signal;HPM_P1;HPM_P2
2022/01/29 00:02:15;;;;;;;41.00;26.73;;;6.40;99.90;;;;;;5104294;28;20243;-91
2022/01/29 00:04:41;;;;;;;40.30;25.97;;;6.40;99.90;;;;;;5120525;28;20171;-94
2022/01/29 00:07:06;;;;;;;44.87;26.90;;;6.40;99.90;;;;;;5120405;28;20243;-93
2022/01/29 00:09:32;;;;;;;38.57;24.77;;;6.40;99.90;;;;;;5130479;28;20174;-89
2022/01/29 00:11:58;;;;;;;39.43;26.07;;;6.40;99.90;;;;;;5134071;28;20179;-90
2022/01/29 00:14:23;;;;;;;42.67;26.13;;;6.40;99.90;;;;;;5134940;28;20212;-91
2022/01/29 00:16:49;;;;;;;41.20;25.73;;;6.50;99.90;;;;;;5140912;28;20210;-91
2022/01/29 00:19:26;;;;;;;39.07;25.73;;;6.40;99.90;;;;;;5123999;28;20592;-91
2022/01/29 00:21:52;;;;;;;37.73;25.27;;;6.70;99.90;;;;;;5122945;28;20269;-89
2022/01/29 00:24:20;;;;;;;41.40;25.47;;;6.50;99.90;;;;;;5120019;27;20219;-91
2022/01/29 00:26:45;;;;;;;42.87;25.10;;;6.40;99.90;;;;;;5124039;27;20162;-90
2022/01/29 00:29:19;;;;;;;37.63;24.80;;;6.60;99.90;;;;;;5123715;27;20180;-90
2022/01/29 00:31:44;;;;;;;41.77;24.93;;;6.60;99.90;;;;;;5123937;27;20610;-93
2022/01/29 00:34:10;;;;;;;38.70;24.20;;;6.50;99.90;;;;;;5124888;27;20170;-92
2022/01/29 00:36:36;;;;;;;37.47;24.63;;;6.50;99.90;;;;;;5124919;27;20206;-90
2022/01/29 00:39:03;;;;;;;36.37;24.93;;;6.50;99.90;;;;;;5128661;27;20173;-90
2022/01/29 00:41:28;;;;;;;39.30;24.63;;;6.60;99.90;;;;;;5125413;27;20186;-91
2022/01/29 00:43:54;;;;;;;40.27;24.60;;;6.60;99.90;;;;;;5128137;27;20176;-90
2022/01/29 00:46:20;;;;;;;41.07;25.33;;;6.70;99.90;;;;;;5135555;27;20170;-90
2022/01/29 00:48:46;;;;;;;39.20;24.97;;;6.60;99.90;;;;;;5154688;27;20185;-90
2022/01/29 00:51:11;;;;;;;44.40;26.67;;;6.60;99.90;;;;;;5128508;27;20269;-91
2022/01/29 00:53:37;;;;;;;42.73;24.97;;;6.60;99.90;;;;;;5132411;27;20194;-90
2022/01/29 00:56:06;;;;;;;40.63;23.47;;;6.60;99.90;;;;;;5132184;27;20186;-91
2022/01/29 00:58:32;;;;;;;44.97;25.20;;;6.60;99.90;;;;;;5123752;27;20546;-90
2022/01/29 01:01:00;;;;;;;46.40;25.60;;;6.70;99.90;;;;;;5127180;27;20163;-90
2022/01/29 01:03:26;;;;;;;49.10;27.40;;;6.60;99.90;;;;;;5141117;27;20198;-89
2022/01/29 01:05:51;;;;;;;40.07;23.73;;;6.60;99.90;;;;;;5137201;27;20192;-91
2022/01/29 01:08:20;;;;;;;44.90;25.77;;;6.60;99.90;;;;;;5142646;27;20174;-91
2022/01/29 01:10:46;;;;;;;43.73;25.17;;;6.70;99.90;;;;;;5133271;27;20254;-89
2022/01/29 01:13:12;;;;;;;40.90;25.77;;;6.70;99.90;;;;;;5131451;27;20170;-90
2022/01/29 01:15:44;;;;;;;44.90;24.73;;;6.60;99.90;;;;;;5123806;27;20171;-89
2022/01/29 01:18:10;;;;;;;40.73;25.13;;;6.60;99.90;;;;;;5122436;27;20198;-89
2022/01/29 01:20:36;;;;;;;46.73;26.43;;;6.60;99.90;;;;;;5123289;27;20221;-89
2022/01/29 01:23:03;;;;;;;43.57;28.60;;;6.80;99.90;;;;;;5123646;27;20177;-90
2022/01/29 01:25:29;;;;;;;45.23;27.07;;;6.80;99.90;;;;;;5124035;27;20241;-87
2022/01/29 01:27:56;;;;;;;49.43;26.97;;;6.70;99.90;;;;;;5148185;27;20161;-90
2022/01/29 01:30:22;;;;;;;44.30;27.37;;;6.70;99.90;;;;;;5143141;27;20166;-89
2022/01/29 01:32:48;;;;;;;41.00;26.63;;;6.80;99.90;;;;;;5143680;27;20243;-90
2022/01/29 01:35:22;;;;;;;41.67;25.97;;;6.80;99.90;;;;;;5140280;27;20158;-90
2022/01/29 01:38:11;;;;;;;48.43;27.63;;;6.80;99.90;;;;;;5135993;27;20186;-90
2022/01/29 01:40:58;;;;;;;40.20;25.63;;;6.80;99.90;;;;;;5156535;27;20178;-90
2022/01/29 01:43:24;;;;;;;41.27;25.53;;;6.70;99.90;;;;;;5125492;27;20170;-90
2022/01/29 01:45:50;;;;;;;41.73;26.60;;;6.70;99.90;;;;;;5122402;27;20183;-92
2022/01/29 01:48:15;;;;;;;47.30;27.17;;;6.70;99.90;;;;;;5126975;27;20150;-90
2022/01/29 01:50:45;;;;;;;43.97;25.70;;;6.60;99.90;;;;;;5142670;27;20170;-89
2022/01/29 01:53:12;;;;;;;46.23;28.83;;;6.60;99.90;;;;;;5142278;27;20189;-91
2022/01/29 01:55:38;;;;;;;47.83;27.73;;;6.60;99.90;;;;;;5142098;27;20162;-90
2022/01/29 01:58:06;;;;;;;44.97;27.53;;;6.70;99.90;;;;;;5128641;27;20251;-90
2022/01/29 02:00:39;;;;;;;47.80;27.10;;;6.60;99.90;;;;;;5126395;27;20206;-90
2022/01/29 02:03:04;;;;;;;41.97;25.63;;;6.70;99.90;;;;;;5124128;27;20150;-90
2022/01/29 02:05:30;;;;;;;44.47;26.60;;;6.70;99.90;;;;;;5142797;27;20630;-90
2022/01/29 02:07:58;;;;;;;44.43;26.70;;;6.70;99.90;;;;;;5138336;27;20875;-90
2022/01/29 02:10:26;;;;;;;51.20;29.10;;;6.60;99.90;;;;;;5121001;27;20173;-90
2022/01/29 02:12:59;;;;;;;46.70;26.80;;;6.60;99.90;;;;;;5121245;27;20178;-89
2022/01/29 02:15:26;;;;;;;40.70;24.67;;;6.60;99.90;;;;;;5121675;27;20170;-90
2022/01/29 02:17:52;;;;;;;42.37;27.73;;;6.60;99.90;;;;;;5122437;27;20771;-90
2022/01/29 02:20:20;;;;;;;44.50;26.20;;;6.60;99.90;;;;;;5122603;27;20182;-89
2022/01/29 02:22:47;;;;;;;41.20;25.97;;;6.60;99.90;;;;;;5122258;27;20173;-89
2022/01/29 02:25:30;;;;;;;45.03;26.90;;;6.60;99.90;;;;;;5121595;27;20174;-90
2022/01/29 02:28:19;;;;;;;43.73;25.53;;;6.60;99.90;;;;;;5131899;27;20217;-89
2022/01/29 02:30:50;;;;;;;38.30;24.87;;;6.70;99.90;;;;;;5134489;27;20214;-89
2022/01/29 02:33:18;;;;;;;44.30;26.70;;;6.70;99.90;;;;;;5133822;27;20178;-89
2022/01/29 02:35:46;;;;;;;40.63;26.53;;;6.70;99.90;;;;;;5122815;27;20205;-90
2022/01/29 02:38:15;;;;;;;44.77;27.73;;;6.70;99.90;;;;;;5121095;27;20205;-90
2022/01/29 02:40:46;;;;;;;44.10;26.20;;;6.70;99.90;;;;;;5125165;27;20169;-89
2022/01/29 02:43:17;;;;;;;42.93;26.07;;;6.70;99.90;;;;;;5123539;27;20193;-91
2022/01/29 02:45:45;;;;;;;41.90;27.37;;;6.70;99.90;;;;;;5123340;27;20174;-89
2022/01/29 02:48:11;;;;;;;45.50;26.00;;;6.80;99.90;;;;;;5123005;27;20194;-89
2022/01/29 02:50:38;;;;;;;43.83;26.83;;;6.90;99.90;;;;;;5120018;27;20177;-89
2022/01/29 02:53:05;;;;;;;41.80;26.67;;;6.90;99.90;;;;;;5120543;27;20186;-89
2022/01/29 02:55:31;;;;;;;44.33;27.17;;;6.90;99.90;;;;;;5120559;27;20178;-89
2022/01/29 02:57:58;;;;;;;40.87;27.50;;;6.90;99.90;;;;;;5120126;27;20213;-88
2022/01/29 03:00:24;;;;;;;40.97;26.10;;;7.00;99.90;;;;;;5120993;27;20173;-89
2022/01/29 03:02:50;;;;;;;37.93;25.23;;;7.00;99.90;;;;;;5139312;27;20178;-89
2022/01/29 03:05:18;;;;;;;41.70;25.67;;;7.00;99.90;;;;;;5129689;28;20214;-90
2022/01/29 03:07:44;;;;;;;35.30;24.03;;;7.00;99.90;;;;;;5119210;27;20179;-89
2022/01/29 03:10:10;;;;;;;39.17;24.03;;;7.00;99.90;;;;;;5119704;27;20255;-89
2022/01/29 03:12:37;;;;;;;40.43;23.53;;;7.00;99.90;;;;;;5119629;27;20189;-90
2022/01/29 03:15:09;;;;;;;34.03;22.53;;;7.10;99.90;;;;;;5119984;28;20638;-91
2022/01/29 03:17:35;;;;;;;36.13;22.07;;;7.00;99.90;;;;;;5119749;28;20201;-89
2022/01/29 03:20:01;;;;;;;33.63;20.77;;;7.00;99.90;;;;;;5121415;28;20200;-91
2022/01/29 03:22:28;;;;;;;34.97;23.07;;;7.10;99.90;;;;;;5120393;28;20227;-90
2022/01/29 03:24:55;;;;;;;35.57;22.80;;;7.20;99.90;;;;;;5120779;28;20204;-89
2022/01/29 03:27:21;;;;;;;31.87;20.77;;;7.20;99.90;;;;;;5120325;28;20230;-89
2022/01/29 03:29:48;;;;;;;29.63;21.17;;;7.20;99.90;;;;;;5121507;28;20170;-90
2022/01/29 03:32:14;;;;;;;35.97;22.17;;;7.10;99.90;;;;;;5119552;28;20201;-89
2022/01/29 03:34:39;;;;;;;30.60;21.17;;;7.20;99.90;;;;;;5119129;28;20512;-91
2022/01/29 03:37:05;;;;;;;31.97;21.27;;;7.30;99.90;;;;;;5118852;28;20217;-90
2022/01/29 03:39:34;;;;;;;32.00;20.63;;;7.30;99.90;;;;;;5120473;28;20177;-89
2022/01/29 03:42:04;;;;;;;31.17;21.80;;;7.30;99.90;;;;;;5120644;28;20174;-89
2022/01/29 03:44:31;;;;;;;29.10;20.43;;;7.30;99.90;;;;;;5120250;28;20166;-90
2022/01/29 03:46:56;;;;;;;29.93;19.07;;;7.40;99.90;;;;;;5122927;28;20219;-89
2022/01/29 03:49:22;;;;;;;30.03;19.87;;;7.40;99.90;;;;;;5126923;28;20182;-90
2022/01/29 03:51:48;;;;;;;28.47;19.27;;;7.40;99.90;;;;;;5122520;28;20198;-90
2022/01/29 03:54:13;;;;;;;28.07;19.57;;;7.40;99.90;;;;;;5128345;28;20238;-92
2022/01/29 03:56:39;;;;;;;28.73;20.33;;;7.40;99.90;;;;;;5121068;28;20198;-89
2022/01/29 03:59:05;;;;;;;27.60;19.60;;;7.40;99.90;;;;;;5122892;27;20170;-91
2022/01/29 04:01:30;;;;;;;27.77;19.30;;;7.50;99.90;;;;;;5125466;27;20163;-90
2022/01/29 04:03:57;;;;;;;27.70;18.27;;;7.40;99.90;;;;;;5124674;27;20170;-89
2022/01/29 04:06:23;;;;;;;25.30;18.17;;;7.50;99.90;;;;;;5122903;27;20166;-92
2022/01/29 04:08:49;;;;;;;27.77;18.40;;;7.40;99.90;;;;;;5122403;27;20313;-90
2022/01/29 04:11:17;;;;;;;28.10;18.70;;;7.50;99.90;;;;;;5123123;27;20174;-90
2022/01/29 04:13:46;;;;;;;24.00;16.93;;;7.60;99.90;;;;;;5123582;27;20629;-91
2022/01/29 04:16:13;;;;;;;21.67;17.03;;;7.60;99.90;;;;;;5123695;27;20736;-90
2022/01/29 04:18:39;;;;;;;21.83;16.27;;;7.70;99.90;;;;;;5128330;27;20162;-89
2022/01/29 04:21:05;;;;;;;20.47;15.63;;;7.60;99.90;;;;;;5108866;27;20182;-89
2022/01/29 04:23:35;;;;;;;19.97;15.07;;;7.60;99.90;;;;;;5130170;27;20185;-89
2022/01/29 04:26:03;;;;;;;20.93;15.50;;;7.70;99.90;;;;;;5143604;27;20173;-90
2022/01/29 04:28:33;;;;;;;21.50;15.80;;;7.60;99.90;;;;;;5183360;22;20218;-88
2022/01/29 04:31:06;;;;;;;20.07;15.17;;;7.60;99.90;;;;;;5128693;27;20236;-89
2022/01/29 04:37:15;;;;;;;21.13;15.83;;;7.60;99.90;;;;;;5151228;27;20282;-91
2022/01/29 04:39:42;;;;;;;20.13;14.87;;;7.70;99.90;;;;;;5130270;27;20158;-90
2022/01/29 04:42:14;;;;;;;20.93;16.10;;;7.60;99.90;;;;;;5140474;27;20162;-89
2022/01/29 04:44:39;;;;;;;19.83;15.40;;;7.70;99.90;;;;;;5138040;27;20170;-90
2022/01/29 04:47:05;;;;;;;21.53;16.53;;;7.80;99.90;;;;;;5165691;22;20228;-89
2022/01/29 04:49:31;;;;;;;20.60;15.83;;;7.80;99.90;;;;;;5107109;27;20217;-91
2022/01/29 04:51:56;;;;;;;20.33;15.37;;;7.80;99.90;;;;;;5124423;27;20170;-88
2022/01/29 04:54:25;;;;;;;22.13;15.47;;;7.80;99.90;;;;;;5113718;28;20183;-90
2022/01/29 04:57:31;;;;;;;20.10;14.90;;;7.90;99.90;;;;;;5103347;28;20226;-90
2022/01/29 04:59:59;;;;;;;20.80;16.00;;;7.80;99.90;;;;;;5104281;28;20167;-89
2022/01/29 05:02:24;;;;;;;21.30;16.03;;;7.90;99.90;;;;;;5102416;28;20646;-90
2022/01/29 05:04:50;;;;;;;19.97;15.23;;;8.10;99.90;;;;;;5107907;28;20177;-91
2022/01/29 05:07:16;;;;;;;22.97;16.80;;;8.00;99.90;;;;;;5109633;28;20178;-90
2022/01/29 05:09:41;;;;;;;21.23;17.00;;;8.10;99.90;;;;;;5108760;28;20186;-90
2022/01/29 05:12:08;;;;;;;20.80;15.90;;;8.30;99.90;;;;;;5100622;28;20269;-90
2022/01/29 05:14:49;;;;;;;20.13;16.90;;;8.10;99.90;;;;;;5103067;28;20309;-89
2022/01/29 05:28:05;;;;;;;20.67;15.17;;;8.30;99.90;;;;;;5121282;27;20223;-91
2022/01/29 05:30:31;;;;;;;18.83;16.10;;;8.20;99.90;;;;;;5103108;28;20170;-90
2022/01/29 05:32:57;;;;;;;22.13;16.13;;;8.30;99.90;;;;;;5101352;28;20159;-90
2022/01/29 05:35:23;;;;;;;19.60;15.57;;;8.30;99.90;;;;;;5100805;28;20631;-90
2022/01/29 05:37:51;;;;;;;19.93;15.40;;;8.30;99.90;;;;;;5100608;28;20688;-91
2022/01/29 05:40:17;;;;;;;17.90;14.77;;;8.30;99.90;;;;;;5102520;28;20171;-91
2022/01/29 05:42:43;;;;;;;18.80;15.40;;;8.40;99.90;;;;;;5102832;28;20257;-91
2022/01/29 05:45:10;;;;;;;17.10;14.70;;;8.40;99.90;;;;;;5101903;28;20201;-89
2022/01/29 05:47:35;;;;;;;18.60;14.07;;;8.30;99.90;;;;;;5103752;28;20258;-90
2022/01/29 05:50:02;;;;;;;19.93;14.33;;;8.30;99.90;;;;;;5116600;27;20190;-91
2022/01/29 05:52:38;;;;;;;17.87;13.97;;;8.40;99.90;;;;;;5119158;28;20186;-89
2022/01/29 05:55:04;;;;;;;17.90;14.73;;;8.40;99.90;;;;;;5115092;28;20181;-90
2022/01/29 05:57:30;;;;;;;16.27;13.30;;;8.40;99.90;;;;;;5109971;28;20202;-90
2022/01/29 05:59:56;;;;;;;17.07;13.13;;;8.40;99.90;;;;;;5102206;28;20170;-90
2022/01/29 06:02:21;;;;;;;16.27;13.93;;;8.40;99.90;;;;;;5084751;28;20179;-88
2022/01/29 06:04:48;;;;;;;17.97;14.00;;;8.40;99.90;;;;;;5101918;28;20163;-89
2022/01/29 06:07:15;;;;;;;19.20;14.30;;;8.40;99.90;;;;;;5101391;28;20179;-89
2022/01/29 06:09:40;;;;;;;17.53;14.27;;;8.40;99.90;;;;;;5108801;28;20171;-91
2022/01/29 06:12:07;;;;;;;16.93;13.63;;;8.50;99.90;;;;;;5088992;28;20182;-90
2022/01/29 06:14:32;;;;;;;19.97;14.37;;;8.40;99.90;;;;;;5101811;28;20552;-90
2022/01/29 06:17:30;;;;;;;18.77;13.70;;;8.50;99.90;;;;;;5109753;28;20214;-89
2022/01/29 06:19:57;;;;;;;17.37;14.20;;;8.50;99.90;;;;;;5110318;28;20171;-89
2022/01/29 06:22:25;;;;;;;23.70;14.30;;;8.50;99.90;;;;;;5103934;28;20182;-88
2022/01/29 06:24:50;;;;;;;17.63;14.77;;;8.50;99.90;;;;;;5110224;28;20205;-89
2022/01/29 06:27:16;;;;;;;18.87;15.57;;;8.60;99.90;;;;;;5118621;28;20171;-87
2022/01/29 06:29:42;;;;;;;18.73;13.87;;;8.70;99.90;;;;;;5112744;28;20648;-89
2022/01/29 06:32:07;;;;;;;18.13;14.27;;;8.50;99.90;;;;;;5113712;28;20262;-89
2022/01/29 06:34:36;;;;;;;18.03;14.53;;;8.60;99.90;;;;;;5117833;28;20251;-90
2022/01/29 06:37:03;;;;;;;18.33;14.80;;;8.70;99.90;;;;;;5095716;28;20199;-90
2022/01/29 06:39:29;;;;;;;18.00;13.90;;;8.70;99.90;;;;;;5103194;28;20174;-91
2022/01/29 06:41:55;;;;;;;17.97;14.70;;;8.70;99.90;;;;;;5101944;28;20189;-90
2022/01/29 06:44:21;;;;;;;18.47;13.07;;;8.70;99.90;;;;;;5099383;28;20194;-91
2022/01/29 06:46:46;;;;;;;20.30;15.70;;;8.90;99.90;;;;;;5101047;28;20653;-90
2022/01/29 06:49:13;;;;;;;19.27;14.10;;;8.80;99.90;;;;;;5102122;28;20193;-91
2022/01/29 06:51:42;;;;;;;19.03;15.17;;;8.90;99.90;;;;;;5115693;28;20160;-89
2022/01/29 06:54:07;;;;;;;23.13;15.37;;;8.90;99.90;;;;;;5117265;27;20174;-88
2022/01/29 06:56:33;;;;;;;19.50;14.63;;;8.90;99.90;;;;;;5110114;28;20809;-90
2022/01/29 06:58:59;;;;;;;20.40;14.73;;;9.00;99.90;;;;;;5101353;28;20643;-90
2022/01/29 07:01:24;;;;;;;20.20;14.77;;;9.00;99.90;;;;;;5101991;28;20210;-90
2022/01/29 07:03:50;;;;;;;17.77;14.50;;;8.90;99.90;;;;;;5102923;28;20163;-90
2022/01/29 07:06:16;;;;;;;20.23;15.50;;;8.90;99.90;;;;;;5100774;28;20241;-89
2022/01/29 07:08:46;;;;;;;20.03;14.93;;;9.00;99.90;;;;;;5100401;28;20622;-91
2022/01/29 07:11:12;;;;;;;19.43;15.27;;;9.10;99.90;;;;;;5101259;28;20166;-90
2022/01/29 07:13:38;;;;;;;21.50;15.73;;;9.10;99.90;;;;;;5119146;28;20182;-90
2022/01/29 07:16:04;;;;;;;19.17;14.60;;;9.20;99.90;;;;;;5110196;28;20183;-91
2022/01/29 07:18:30;;;;;;;16.60;14.03;;;9.10;99.90;;;;;;5102124;28;20175;-91
2022/01/29 07:20:55;;;;;;;24.07;16.20;;;9.20;99.90;;;;;;5102577;28;20179;-90
2022/01/29 07:23:22;;;;;;;20.70;15.27;;;9.30;99.90;;;;;;5138714;27;20167;-91
2022/01/29 07:25:48;;;;;;;20.27;14.60;;;9.20;99.90;;;;;;5119379;28;20185;-92
2022/01/29 07:28:15;;;;;;;21.70;15.63;;;9.20;99.90;;;;;;5120216;27;20182;-91
2022/01/29 07:31:06;;;;;;;20.33;13.00;;;9.30;99.90;;;;;;5111895;28;20175;-92
2022/01/29 07:34:23;;;;;;;18.60;14.37;;;9.30;99.90;;;;;;5099910;28;20163;-92
2022/01/29 07:36:50;;;;;;;19.53;14.43;;;9.20;99.90;;;;;;5111620;28;20750;-91
2022/01/29 07:39:21;;;;;;;17.90;14.83;;;9.20;99.90;;;;;;5125364;27;20158;-91
2022/01/29 07:41:48;;;;;;;18.17;14.13;;;9.10;99.90;;;;;;5124951;28;20185;-90
2022/01/29 07:44:15;;;;;;;17.00;13.83;;;9.30;99.90;;;;;;5122558;27;20234;-90
2022/01/29 07:46:41;;;;;;;17.60;13.70;;;9.20;99.90;;;;;;5125080;27;20238;-88
2022/01/29 07:49:07;;;;;;;19.73;13.33;;;9.20;99.90;;;;;;5125470;27;20206;-90
2022/01/29 07:51:38;;;;;;;15.17;13.20;;;9.20;99.90;;;;;;5142693;27;20176;-91
2022/01/29 07:54:11;;;;;;;15.03;12.33;;;9.30;99.90;;;;;;5105779;28;20178;-90
2022/01/29 07:56:55;;;;;;;16.20;12.40;;;9.30;99.90;;;;;;5109753;28;20179;-91
2022/01/29 07:59:24;;;;;;;17.13;12.67;;;9.40;99.90;;;;;;5108114;28;20175;-91
2022/01/29 08:02:31;;;;;;;15.50;12.90;;;9.40;99.90;;;;;;5108691;28;20221;-89
2022/01/29 08:04:56;;;;;;;13.50;11.47;;;9.40;99.90;;;;;;5121379;27;20558;-91
2022/01/29 08:07:22;;;;;;;15.27;11.83;;;9.40;99.90;;;;;;5116607;28;20170;-89
2022/01/29 08:09:48;;;;;;;14.67;11.77;;;9.40;99.90;;;;;;5108548;28;20175;-91
2022/01/29 08:12:14;;;;;;;13.50;11.67;;;9.50;99.90;;;;;;5106544;28;20257;-89
2022/01/29 08:14:45;;;;;;;13.80;11.90;;;9.50;99.90;;;;;;5105372;28;20194;-90
2022/01/29 08:17:11;;;;;;;14.03;10.43;;;9.60;99.90;;;;;;5105647;28;20234;-89
2022/01/29 08:19:37;;;;;;;12.97;10.67;;;9.60;99.90;;;;;;5117160;28;20174;-88
2022/01/29 08:22:47;;;;;;;12.67;10.60;;;9.60;99.90;;;;;;5111314;28;20171;-89
2022/01/29 08:25:13;;;;;;;11.90;10.53;;;9.60;99.90;;;;;;5059333;28;20177;-89
2022/01/29 08:27:40;;;;;;;13.00;10.27;;;9.60;99.90;;;;;;5041837;28;20180;-87
2022/01/29 08:30:06;;;;;;;12.97;10.17;;;9.50;99.90;;;;;;5089708;28;20187;-88
2022/01/29 08:32:32;;;;;;;13.60;10.83;;;9.50;99.90;;;;;;5103295;28;20658;-90
2022/01/29 08:34:58;;;;;;;14.13;11.30;;;9.70;99.90;;;;;;5117531;28;20175;-89
2022/01/29 08:37:24;;;;;;;14.83;11.47;;;9.60;99.90;;;;;;5092559;28;20210;-87
2022/01/29 08:39:49;;;;;;;12.80;10.40;;;9.60;99.90;;;;;;5090235;28;20274;-88
2022/01/29 08:42:15;;;;;;;12.47;10.03;;;9.60;99.90;;;;;;5110607;27;20187;-87
2022/01/29 08:44:42;;;;;;;11.90;9.67;;;9.60;99.90;;;;;;5100239;28;20690;-91
2022/01/29 08:47:10;;;;;;;11.33;8.77;;;9.60;99.90;;;;;;5093084;28;20187;-89
2022/01/29 08:49:38;;;;;;;10.67;9.57;;;9.60;99.90;;;;;;5096896;28;20159;-90
2022/01/29 08:52:04;;;;;;;11.27;7.87;;;9.70;99.90;;;;;;5102536;27;20179;-90
2022/01/29 08:54:32;;;;;;;10.50;8.30;;;9.70;99.90;;;;;;5101718;28;20179;-90
2022/01/29 08:56:57;;;;;;;11.30;9.17;;;9.70;99.90;;;;;;5094316;28;20199;-91
2022/01/29 08:59:23;;;;;;;10.60;9.40;;;9.60;99.90;;;;;;5092130;28;20645;-90
2022/01/29 09:01:49;;;;;;;11.97;9.63;;;9.60;99.90;;;;;;5093691;28;20623;-91
2022/01/29 09:04:15;;;;;;;11.47;8.67;;;9.60;99.90;;;;;;5116463;28;20167;-90
2022/01/29 09:06:48;;;;;;;9.63;8.43;;;9.60;99.90;;;;;;5117108;28;20245;-92
2022/01/29 09:09:23;;;;;;;13.00;9.67;;;9.60;99.90;;;;;;5107089;28;20181;-91
2022/01/29 09:11:50;;;;;;;10.53;9.20;;;9.70;99.90;;;;;;5088999;27;20182;-88
2022/01/29 09:14:16;;;;;;;11.83;9.47;;;9.60;99.90;;;;;;5102568;28;20535;-89
2022/01/29 09:16:42;;;;;;;10.43;8.93;;;9.60;99.90;;;;;;5113906;28;20202;-90
2022/01/29 09:19:08;;;;;;;9.87;8.43;;;9.80;99.90;;;;;;5113554;28;20189;-89
2022/01/29 09:21:34;;;;;;;11.20;9.13;;;9.70;99.90;;;;;;5103589;28;20698;-89
2022/01/29 09:24:00;;;;;;;10.47;8.53;;;9.70;99.90;;;;;;5110760;28;20171;-89
2022/01/29 09:26:32;;;;;;;11.07;8.53;;;9.80;99.90;;;;;;5111716;28;20175;-91
2022/01/29 09:29:01;;;;;;;12.50;9.43;;;9.80;99.90;;;;;;5106454;28;20709;-89
2022/01/29 09:31:28;;;;;;;10.13;8.13;;;9.80;99.90;;;;;;5088288;28;20199;-89
2022/01/29 09:33:53;;;;;;;12.87;8.77;;;9.80;99.90;;;;;;5107883;28;20192;-90
2022/01/29 09:36:21;;;;;;;11.33;9.20;;;9.90;99.90;;;;;;5123708;28;20167;-90
2022/01/29 09:38:47;;;;;;;10.87;8.70;;;9.80;99.90;;;;;;5094213;28;20693;-91
2022/01/29 09:41:15;;;;;;;11.47;9.50;;;9.90;99.90;;;;;;5104047;28;20148;-90
2022/01/29 09:43:43;;;;;;;11.37;9.90;;;10.10;99.90;;;;;;5097265;28;20175;-90
2022/01/29 09:46:10;;;;;;;15.10;10.60;;;10.00;99.90;;;;;;5098829;28;20208;-90
2022/01/29 09:48:36;;;;;;;13.63;9.53;;;10.00;99.90;;;;;;5090832;28;20167;-91
2022/01/29 09:51:02;;;;;;;11.97;10.10;;;10.10;99.90;;;;;;5094293;28;20164;-91
2022/01/29 09:53:28;;;;;;;14.13;9.83;;;10.10;99.90;;;;;;5065309;28;20661;-89
2022/01/29 09:55:53;;;;;;;12.73;9.63;;;10.20;99.90;;;;;;5081416;28;20221;-90
2022/01/29 09:58:20;;;;;;;12.40;9.70;;;10.20;99.90;;;;;;5101402;28;20199;-91
2022/01/29 10:00:46;;;;;;;18.83;8.70;;;10.20;99.90;;;;;;5084011;28;20198;-91
2022/01/29 10:03:12;;;;;;;12.13;9.20;;;10.20;99.90;;;;;;5090962;28;20179;-91
2022/01/29 10:05:44;;;;;;;13.23;9.20;;;10.30;99.90;;;;;;5085254;28;20211;-88
2022/01/29 10:08:11;;;;;;;11.47;7.83;;;10.30;99.90;;;;;;5095875;28;20187;-91
2022/01/29 10:10:49;;;;;;;11.80;8.67;;;10.40;99.90;;;;;;5094618;28;20195;-90
2022/01/29 10:13:32;;;;;;;10.70;7.80;;;10.40;99.90;;;;;;5086691;28;20248;-90
2022/01/29 10:16:08;;;;;;;11.10;7.70;;;10.30;99.90;;;;;;5097779;28;20167;-89
2022/01/29 10:18:39;;;;;;;10.87;7.93;;;10.30;99.90;;;;;;5118291;28;20250;-90
2022/01/29 10:21:32;;;;;;;9.87;8.07;;;10.30;99.90;;;;;;5112632;28;20183;-89
2022/01/29 10:24:06;;;;;;;8.93;7.40;;;10.40;99.90;;;;;;5106363;28;20236;-91
2022/01/29 10:26:35;;;;;;;10.33;7.83;;;10.30;99.90;;;;;;5108069;28;20187;-91
2022/01/29 10:29:06;;;;;;;9.17;7.20;;;10.40;99.90;;;;;;5083983;28;20266;-90
2022/01/29 10:31:55;;;;;;;10.67;7.20;;;10.40;99.90;;;;;;5086486;28;20192;-90
2022/01/29 10:34:27;;;;;;;8.60;7.00;;;10.50;99.90;;;;;;5087274;27;20168;-91
2022/01/29 10:37:17;;;;;;;8.33;6.00;;;10.50;99.90;;;;;;5099918;28;20181;-91
2022/01/29 10:40:06;;;;;;;7.50;6.53;;;10.50;99.90;;;;;;5082227;28;20179;-90
2022/01/29 10:42:38;;;;;;;8.27;6.40;;;10.60;99.90;;;;;;5103608;28;20171;-90
2022/01/29 10:45:07;;;;;;;8.73;5.70;;;10.60;99.90;;;;;;5090766;28;20246;-91
2022/01/29 10:47:57;;;;;;;9.53;6.70;;;10.60;99.90;;;;;;5082500;28;20193;-90
2022/01/29 10:50:24;;;;;;;9.37;5.97;;;10.70;99.90;;;;;;5074553;28;20232;-90
2022/01/29 10:52:50;;;;;;;8.53;6.60;;;10.70;99.90;;;;;;5101707;28;20174;-90
2022/01/29 10:55:17;;;;;;;7.80;5.57;;;10.70;99.90;;;;;;5103128;28;20178;-90
2022/01/29 10:57:48;;;;;;;7.03;5.10;;;10.70;99.90;;;;;;5108586;28;20354;-90
2022/01/29 11:00:31;;;;;;;6.47;5.53;;;10.70;99.90;;;;;;5092389;28;20643;-90
2022/01/29 11:03:01;;;;;;;9.57;6.60;;;10.70;99.90;;;;;;5081827;28;20175;-90
2022/01/29 11:05:32;;;;;;;8.57;5.63;;;10.80;99.90;;;;;;5081605;28;20163;-92
2022/01/29 11:08:01;;;;;;;7.80;6.03;;;10.80;99.90;;;;;;5083633;28;20194;-89
2022/01/29 11:10:27;;;;;;;7.80;6.50;;;10.90;99.90;;;;;;5082274;28;20262;-90
2022/01/29 11:12:57;;;;;;;8.57;6.60;;;11.00;99.90;;;;;;5085981;28;20266;-90
2022/01/29 11:15:25;;;;;;;8.77;5.90;;;11.00;99.90;;;;;;5105039;28;20171;-90
2022/01/29 11:17:51;;;;;;;9.03;6.17;;;11.00;99.90;;;;;;5118800;27;20243;-91
2022/01/29 11:20:18;;;;;;;11.13;6.00;;;11.00;99.90;;;;;;5119931;27;20155;-89
2022/01/29 11:22:50;;;;;;;8.30;6.20;;;11.10;99.90;;;;;;5119527;27;20182;-88
2022/01/29 11:25:22;;;;;;;9.47;6.27;;;11.00;99.90;;;;;;5117024;28;20186;-90
2022/01/29 11:28:11;;;;;;;8.87;6.07;;;11.10;99.90;;;;;;5108842;28;20241;-92
2022/01/29 11:31:43;;;;;;;9.27;5.93;;;11.10;99.90;;;;;;5102782;28;20302;-88
2022/01/29 11:34:12;;;;;;;9.70;5.60;;;11.10;99.90;;;;;;5104438;28;20250;-88
2022/01/29 11:36:47;;;;;;;10.67;5.90;;;11.20;99.90;;;;;;5103952;28;20210;-88
2022/01/29 11:39:25;;;;;;;8.30;5.33;;;11.20;99.90;;;;;;5102739;28;20183;-92
2022/01/29 11:42:16;;;;;;;9.23;5.97;;;11.30;99.90;;;;;;5104285;28;20186;-89
2022/01/29 11:44:43;;;;;;;10.80;6.00;;;11.10;99.90;;;;;;5103449;28;20181;-88
2022/01/29 11:47:26;;;;;;;7.40;5.03;;;11.20;99.90;;;;;;5111462;28;20191;-87
2022/01/29 11:50:32;;;;;;;10.53;4.63;;;11.40;99.90;;;;;;5114303;28;20198;-89
2022/01/29 11:53:02;;;;;;;10.30;4.63;;;11.30;99.90;;;;;;5118581;28;20167;-88
2022/01/29 11:55:47;;;;;;;7.23;4.27;;;11.30;99.90;;;;;;5105009;28;20194;-90
2022/01/29 11:58:36;;;;;;;10.23;4.57;;;11.40;99.90;;;;;;5101952;28;20255;-89
2022/01/29 12:01:29;;;;;;;8.10;5.13;;;11.40;99.90;;;;;;5104636;28;20169;-91
2022/01/29 12:03:56;;;;;;;11.47;4.83;;;11.50;99.90;;;;;;5102671;28;20175;-89
2022/01/29 12:09:14;;;;;;;9.67;5.00;;;11.40;99.90;;;;;;5120938;28;20183;-90
2022/01/29 12:11:44;;;;;;;9.23;5.30;;;11.30;99.90;;;;;;5091280;28;20172;-90
2022/01/29 12:14:13;;;;;;;9.03;4.80;;;11.50;99.90;;;;;;5101081;28;20186;-91
2022/01/29 12:16:47;;;;;;;10.70;4.80;;;11.40;99.90;;;;;;5097982;28;20643;-93
2022/01/29 12:19:41;;;;;;;8.40;4.40;;;11.40;99.90;;;;;;5083999;28;20634;-90
2022/01/29 12:22:15;;;;;;;9.43;3.73;;;11.40;99.90;;;;;;5103896;28;20175;-91
2022/01/29 12:24:50;;;;;;;10.37;4.13;;;11.50;99.90;;;;;;5102661;28;20171;-91
2022/01/29 12:27:16;;;;;;;7.30;3.83;;;11.50;99.90;;;;;;5091174;28;20183;-91
2022/01/29 12:29:43;;;;;;;13.60;4.00;;;11.40;99.90;;;;;;5104812;28;20171;-89
2022/01/29 12:32:11;;;;;;;9.77;3.30;;;11.40;99.90;;;;;;5106458;28;20220;-91
2022/01/29 12:34:40;;;;;;;7.97;3.30;;;11.60;99.90;;;;;;5088060;28;20160;-90
2022/01/29 12:37:20;;;;;;;5.20;2.97;;;11.50;99.90;;;;;;5093213;28;20202;-93
2022/01/29 12:40:06;;;;;;;8.37;3.33;;;11.20;99.90;;;;;;5092350;28;20187;-92
2022/01/29 12:42:44;;;;;;;7.90;2.90;;;11.50;99.90;;;;;;5095638;28;20198;-91
2022/01/29 12:45:11;;;;;;;6.40;3.20;;;11.50;99.90;;;;;;5091800;28;20168;-90
2022/01/29 12:47:38;;;;;;;7.73;2.83;;;11.60;99.90;;;;;;5088684;28;20198;-91
2022/01/29 12:50:20;;;;;;;6.47;2.93;;;11.50;99.90;;;;;;5123992;28;20205;-91
2022/01/29 12:53:03;;;;;;;8.57;2.80;;;11.60;99.90;;;;;;5105587;28;20166;-91
2022/01/29 12:55:29;;;;;;;8.70;3.80;;;11.60;99.90;;;;;;5108637;28;20167;-90
2022/01/29 12:57:58;;;;;;;7.37;3.20;;;11.60;99.90;;;;;;5088063;28;20215;-91
2022/01/29 13:00:26;;;;;;;5.53;2.53;;;11.60;99.90;;;;;;5111863;28;20178;-91
2022/01/29 13:03:03;;;;;;;6.63;3.00;;;11.60;99.90;;;;;;5088177;28;20628;-88
2022/01/29 13:05:29;;;;;;;8.43;3.07;;;11.60;99.90;;;;;;5098462;28;20170;-89
2022/01/29 13:07:54;;;;;;;8.10;2.87;;;11.70;99.90;;;;;;5116040;28;20248;-89
2022/01/29 13:10:22;;;;;;;6.90;2.93;;;11.80;99.90;;;;;;5114743;28;20160;-91